CheckWX is a tool to help pilots better visualize weather data.  It is not intended as a substitute for an official pre-flight weather briefing.

03:18:55 UTC

KPWG METAR
Mc Gregor Executive Airport
Waco, Texas, USA
Current

23 mins ago

KPWG 260256Z AUTO 16012KT 10SM CLR 27/20 A2998 RMK AO2 SLP156 T02670200 53010
Observed
May-26 @ 02:56 UTC
Wind
  • 160° at 12 KTS
Visibility
10 SM
Flight Rules
VFR
Cloud Levels
  • Clear skies
Temperature
27°C / 81°F
Dewpoint
20°C / 68°F
Heat Index
29°C / 84°F
Humidity
66%
Altimeter
29.98" Hg
Pressure
1015.22 hPa
Previous

1 hour ago

KPWG 260156Z AUTO 15011KT 10SM CLR 27/20 A2996 RMK AO2 SLP150 T02720200
Observed
May-26 @ 01:56 UTC
Wind
  • 150° at 11 KTS
Visibility
10 SM
Flight Rules
VFR
Cloud Levels
  • Clear skies
Temperature
27°C / 81°F
Dewpoint
20°C / 68°F
Heat Index
29°C / 84°F
Humidity
66%
Altimeter
29.96" Hg
Pressure
1014.52 hPa
Previous

2 hours ago

KPWG 260056Z AUTO 15010KT 10SM CLR 29/20 A2995 RMK AO2 SLP146 T02890200
Observed
May-26 @ 00:56 UTC
Wind
  • 150° at 10 KTS
Visibility
10 SM
Flight Rules
VFR
Cloud Levels
  • Clear skies
Temperature
29°C / 84°F
Dewpoint
20°C / 68°F
Heat Index
31°C / 87°F
Humidity
58%
Altimeter
29.95" Hg
Pressure
1014.22 hPa